sensor_id;sensor_type;location;lat;lon;timestamp;P1;durP1;ratioP1;P2;durP2;ratioP2
24787;SDS011;12883;52.662;5.196;2022-12-18T00:01:27;50.67;;;50.10;;
24787;SDS011;12883;52.662;5.196;2022-12-18T00:03:54;50.40;;;49.90;;
24787;SDS011;12883;52.662;5.196;2022-12-18T00:06:21;46.67;;;46.17;;
24787;SDS011;12883;52.662;5.196;2022-12-18T00:08:47;47.17;;;46.67;;
24787;SDS011;12883;52.662;5.196;2022-12-18T00:11:14;47.20;;;46.70;;
24787;SDS011;12883;52.662;5.196;2022-12-18T00:13:41;46.10;;;45.60;;
24787;SDS011;12883;52.662;5.196;2022-12-18T00:16:15;46.80;;;46.30;;
24787;SDS011;12883;52.662;5.196;2022-12-18T00:18:45;46.87;;;46.37;;
24787;SDS011;12883;52.662;5.196;2022-12-18T00:21:11;48.97;;;48.47;;
24787;SDS011;12883;52.662;5.196;2022-12-18T00:23:37;48.80;;;48.30;;
24787;SDS011;12883;52.662;5.196;2022-12-18T00:26:05;48.27;;;47.77;;
24787;SDS011;12883;52.662;5.196;2022-12-18T00:28:32;47.13;;;46.63;;
24787;SDS011;12883;52.662;5.196;2022-12-18T00:31:05;47.40;;;46.90;;
24787;SDS011;12883;52.662;5.196;2022-12-18T00:33:33;48.17;;;47.67;;
24787;SDS011;12883;52.662;5.196;2022-12-18T00:36:02;46.53;;;46.03;;
24787;SDS011;12883;52.662;5.196;2022-12-18T00:38:29;46.73;;;46.23;;
24787;SDS011;12883;52.662;5.196;2022-12-18T00:40:55;47.67;;;47.17;;
24787;SDS011;12883;52.662;5.196;2022-12-18T00:43:20;47.37;;;46.97;;
24787;SDS011;12883;52.662;5.196;2022-12-18T00:45:45;49.33;;;48.83;;
24787;SDS011;12883;52.662;5.196;2022-12-18T00:48:10;48.50;;;48.00;;
24787;SDS011;12883;52.662;5.196;2022-12-18T00:50:36;46.73;;;46.27;;
24787;SDS011;12883;52.662;5.196;2022-12-18T00:53:01;46.93;;;46.43;;
24787;SDS011;12883;52.662;5.196;2022-12-18T00:55:27;48.17;;;47.67;;
24787;SDS011;12883;52.662;5.196;2022-12-18T00:57:52;47.03;;;46.63;;
24787;SDS011;12883;52.662;5.196;2022-12-18T01:00:18;46.83;;;46.33;;
24787;SDS011;12883;52.662;5.196;2022-12-18T01:02:43;47.63;;;47.13;;
24787;SDS011;12883;52.662;5.196;2022-12-18T01:05:09;49.63;;;49.13;;
24787;SDS011;12883;52.662;5.196;2022-12-18T01:07:36;49.40;;;48.90;;
24787;SDS011;12883;52.662;5.196;2022-12-18T01:10:02;47.63;;;47.17;;
24787;SDS011;12883;52.662;5.196;2022-12-18T01:12:29;49.60;;;49.10;;
24787;SDS011;12883;52.662;5.196;2022-12-18T01:14:54;49.47;;;48.97;;
24787;SDS011;12883;52.662;5.196;2022-12-18T01:17:20;46.47;;;45.97;;
24787;SDS011;12883;52.662;5.196;2022-12-18T01:19:45;47.70;;;47.20;;
24787;SDS011;12883;52.662;5.196;2022-12-18T01:22:11;47.27;;;46.77;;
24787;SDS011;12883;52.662;5.196;2022-12-18T01:24:36;48.00;;;47.50;;
24787;SDS011;12883;52.662;5.196;2022-12-18T01:27:01;47.87;;;47.37;;
24787;SDS011;12883;52.662;5.196;2022-12-18T01:29:27;46.40;;;45.90;;
24787;SDS011;12883;52.662;5.196;2022-12-18T01:31:54;46.00;;;45.57;;
24787;SDS011;12883;52.662;5.196;2022-12-18T01:34:20;45.47;;;45.07;;
24787;SDS011;12883;52.662;5.196;2022-12-18T01:36:45;46.20;;;45.80;;
24787;SDS011;12883;52.662;5.196;2022-12-18T01:39:11;47.17;;;46.67;;
24787;SDS011;12883;52.662;5.196;2022-12-18T01:41:38;46.70;;;46.30;;
24787;SDS011;12883;52.662;5.196;2022-12-18T01:49:54;47.80;;;47.30;;
24787;SDS011;12883;52.662;5.196;2022-12-18T01:52:20;47.50;;;47.00;;
24787;SDS011;12883;52.662;5.196;2022-12-18T01:54:46;47.30;;;46.80;;
24787;SDS011;12883;52.662;5.196;2022-12-18T01:57:13;45.67;;;45.27;;
24787;SDS011;12883;52.662;5.196;2022-12-18T01:59:39;43.97;;;43.57;;
24787;SDS011;12883;52.662;5.196;2022-12-18T02:02:06;44.77;;;44.37;;
24787;SDS011;12883;52.662;5.196;2022-12-18T02:04:32;45.63;;;45.17;;
24787;SDS011;12883;52.662;5.196;2022-12-18T02:09:31;43.03;;;42.63;;
24787;SDS011;12883;52.662;5.196;2022-12-18T02:12:05;44.97;;;44.53;;
24787;SDS011;12883;52.662;5.196;2022-12-18T02:17:33;43.93;;;43.53;;
24787;SDS011;12883;52.662;5.196;2022-12-18T02:20:27;44.47;;;44.07;;
24787;SDS011;12883;52.662;5.196;2022-12-18T02:28:46;44.17;;;43.77;;
24787;SDS011;12883;52.662;5.196;2022-12-18T02:31:26;44.17;;;43.77;;
24787;SDS011;12883;52.662;5.196;2022-12-18T02:33:55;48.17;;;47.77;;
24787;SDS011;12883;52.662;5.196;2022-12-18T02:36:23;45.03;;;44.63;;
24787;SDS011;12883;52.662;5.196;2022-12-18T02:38:52;43.80;;;43.40;;
24787;SDS011;12883;52.662;5.196;2022-12-18T02:41:19;47.07;;;46.57;;
24787;SDS011;12883;52.662;5.196;2022-12-18T02:43:53;46.27;;;45.77;;
24787;SDS011;12883;52.662;5.196;2022-12-18T02:46:35;43.50;;;43.10;;
24787;SDS011;12883;52.662;5.196;2022-12-18T02:49:34;45.77;;;45.37;;
24787;SDS011;12883;52.662;5.196;2022-12-18T02:52:07;45.77;;;45.37;;
24787;SDS011;12883;52.662;5.196;2022-12-18T02:57:22;43.93;;;43.53;;
24787;SDS011;12883;52.662;5.196;2022-12-18T03:00:00;43.80;;;43.40;;
24787;SDS011;12883;52.662;5.196;2022-12-18T03:02:35;46.50;;;46.10;;
24787;SDS011;12883;52.662;5.196;2022-12-18T03:05:05;45.57;;;45.17;;
24787;SDS011;12883;52.662;5.196;2022-12-18T03:07:40;45.37;;;44.97;;
24787;SDS011;12883;52.662;5.196;2022-12-18T03:10:13;48.33;;;47.87;;
24787;SDS011;12883;52.662;5.196;2022-12-18T03:12:43;48.03;;;47.63;;
24787;SDS011;12883;52.662;5.196;2022-12-18T03:15:18;47.13;;;46.73;;
24787;SDS011;12883;52.662;5.196;2022-12-18T03:18:12;45.97;;;45.57;;
24787;SDS011;12883;52.662;5.196;2022-12-18T03:20:38;45.60;;;45.20;;
24787;SDS011;12883;52.662;5.196;2022-12-18T03:23:10;48.87;;;48.37;;
24787;SDS011;12883;52.662;5.196;2022-12-18T03:25:39;48.13;;;47.70;;
24787;SDS011;12883;52.662;5.196;2022-12-18T03:28:08;46.13;;;45.67;;
24787;SDS011;12883;52.662;5.196;2022-12-18T03:30:37;45.20;;;44.80;;
24787;SDS011;12883;52.662;5.196;2022-12-18T03:33:08;47.73;;;47.23;;
24787;SDS011;12883;52.662;5.196;2022-12-18T03:35:41;48.30;;;47.80;;
24787;SDS011;12883;52.662;5.196;2022-12-18T03:38:08;46.33;;;45.87;;
24787;SDS011;12883;52.662;5.196;2022-12-18T03:40:41;44.60;;;44.20;;
24787;SDS011;12883;52.662;5.196;2022-12-18T03:43:17;46.30;;;45.90;;
24787;SDS011;12883;52.662;5.196;2022-12-18T03:45:51;45.43;;;45.00;;
24787;SDS011;12883;52.662;5.196;2022-12-18T03:48:24;45.87;;;45.47;;
24787;SDS011;12883;52.662;5.196;2022-12-18T03:51:02;44.33;;;43.93;;
24787;SDS011;12883;52.662;5.196;2022-12-18T03:53:41;46.43;;;45.93;;
24787;SDS011;12883;52.662;5.196;2022-12-18T03:56:13;45.57;;;45.17;;
24787;SDS011;12883;52.662;5.196;2022-12-18T03:58:41;47.13;;;46.63;;
24787;SDS011;12883;52.662;5.196;2022-12-18T04:01:08;46.40;;;45.90;;
24787;SDS011;12883;52.662;5.196;2022-12-18T04:03:38;48.83;;;48.33;;
24787;SDS011;12883;52.662;5.196;2022-12-18T04:06:04;47.53;;;47.03;;
24787;SDS011;12883;52.662;5.196;2022-12-18T04:08:31;48.07;;;47.57;;
24787;SDS011;12883;52.662;5.196;2022-12-18T04:10:58;47.90;;;47.40;;
24787;SDS011;12883;52.662;5.196;2022-12-18T04:13:25;47.90;;;47.43;;
24787;SDS011;12883;52.662;5.196;2022-12-18T04:15:54;47.77;;;47.30;;
24787;SDS011;12883;52.662;5.196;2022-12-18T04:18:19;49.37;;;48.87;;
24787;SDS011;12883;52.662;5.196;2022-12-18T04:20:45;47.93;;;47.47;;
24787;SDS011;12883;52.662;5.196;2022-12-18T04:23:10;49.97;;;49.47;;
24787;SDS011;12883;52.662;5.196;2022-12-18T04:25:36;46.63;;;46.23;;
24787;SDS011;12883;52.662;5.196;2022-12-18T04:28:01;46.57;;;46.17;;
24787;SDS011;12883;52.662;5.196;2022-12-18T04:30:27;46.70;;;46.30;;
24787;SDS011;12883;52.662;5.196;2022-12-18T04:32:52;45.03;;;44.63;;
24787;SDS011;12883;52.662;5.196;2022-12-18T04:35:17;47.27;;;46.87;;
24787;SDS011;12883;52.662;5.196;2022-12-18T04:37:42;46.13;;;45.73;;
24787;SDS011;12883;52.662;5.196;2022-12-18T04:40:08;43.63;;;43.23;;
24787;SDS011;12883;52.662;5.196;2022-12-18T04:42:34;44.47;;;44.07;;
24787;SDS011;12883;52.662;5.196;2022-12-18T04:44:59;45.37;;;44.97;;
24787;SDS011;12883;52.662;5.196;2022-12-18T04:47:24;42.83;;;42.43;;
24787;SDS011;12883;52.662;5.196;2022-12-18T04:49:50;42.20;;;41.80;;
24787;SDS011;12883;52.662;5.196;2022-12-18T04:52:15;42.43;;;42.03;;
24787;SDS011;12883;52.662;5.196;2022-12-18T04:54:40;41.50;;;41.20;;
24787;SDS011;12883;52.662;5.196;2022-12-18T04:57:06;42.37;;;41.97;;
24787;SDS011;12883;52.662;5.196;2022-12-18T04:59:31;43.33;;;42.93;;
24787;SDS011;12883;52.662;5.196;2022-12-18T05:01:56;42.90;;;42.50;;
24787;SDS011;12883;52.662;5.196;2022-12-18T05:04:22;40.60;;;40.30;;
24787;SDS011;12883;52.662;5.196;2022-12-18T05:06:47;43.07;;;42.67;;
24787;SDS011;12883;52.662;5.196;2022-12-18T05:09:12;42.97;;;42.57;;
24787;SDS011;12883;52.662;5.196;2022-12-18T05:11:38;40.87;;;40.57;;
24787;SDS011;12883;52.662;5.196;2022-12-18T05:14:03;43.20;;;42.90;;
24787;SDS011;12883;52.662;5.196;2022-12-18T05:16:29;40.27;;;39.97;;
24787;SDS011;12883;52.662;5.196;2022-12-18T05:18:54;40.93;;;40.53;;
24787;SDS011;12883;52.662;5.196;2022-12-18T05:21:19;39.93;;;39.63;;
24787;SDS011;12883;52.662;5.196;2022-12-18T05:23:45;42.67;;;42.27;;
24787;SDS011;12883;52.662;5.196;2022-12-18T05:26:11;41.10;;;40.80;;
24787;SDS011;12883;52.662;5.196;2022-12-18T05:28:42;40.73;;;40.43;;
24787;SDS011;12883;52.662;5.196;2022-12-18T05:31:08;40.33;;;40.03;;
24787;SDS011;12883;52.662;5.196;2022-12-18T05:33:34;38.77;;;38.47;;
24787;SDS011;12883;52.662;5.196;2022-12-18T05:36:03;40.40;;;40.10;;
24787;SDS011;12883;52.662;5.196;2022-12-18T05:38:31;37.70;;;37.40;;
24787;SDS011;12883;52.662;5.196;2022-12-18T05:40:57;36.07;;;35.77;;
24787;SDS011;12883;52.662;5.196;2022-12-18T05:43:24;35.73;;;35.43;;
24787;SDS011;12883;52.662;5.196;2022-12-18T05:45:50;36.57;;;36.27;;
24787;SDS011;12883;52.662;5.196;2022-12-18T05:48:17;35.40;;;35.10;;
24787;SDS011;12883;52.662;5.196;2022-12-18T05:50:43;34.73;;;34.47;;
24787;SDS011;12883;52.662;5.196;2022-12-18T05:53:13;33.37;;;33.07;;
24787;SDS011;12883;52.662;5.196;2022-12-18T05:55:40;31.70;;;31.40;;
24787;SDS011;12883;52.662;5.196;2022-12-18T05:58:07;29.10;;;28.90;;
24787;SDS011;12883;52.662;5.196;2022-12-18T06:00:34;30.33;;;30.13;;
24787;SDS011;12883;52.662;5.196;2022-12-18T06:03:01;30.20;;;30.00;;
24787;SDS011;12883;52.662;5.196;2022-12-18T06:05:26;30.70;;;30.50;;
24787;SDS011;12883;52.662;5.196;2022-12-18T06:07:52;32.13;;;31.93;;
24787;SDS011;12883;52.662;5.196;2022-12-18T06:10:18;33.03;;;32.73;;
24787;SDS011;12883;52.662;5.196;2022-12-18T06:12:43;33.33;;;33.13;;
24787;SDS011;12883;52.662;5.196;2022-12-18T06:15:09;32.80;;;32.50;;
24787;SDS011;12883;52.662;5.196;2022-12-18T06:17:34;32.53;;;32.23;;
24787;SDS011;12883;52.662;5.196;2022-12-18T06:20:01;30.83;;;30.63;;
24787;SDS011;12883;52.662;5.196;2022-12-18T06:22:26;30.60;;;30.40;;
24787;SDS011;12883;52.662;5.196;2022-12-18T06:24:52;31.90;;;31.70;;
24787;SDS011;12883;52.662;5.196;2022-12-18T06:27:18;31.90;;;31.70;;
24787;SDS011;12883;52.662;5.196;2022-12-18T06:29:43;31.27;;;30.97;;
24787;SDS011;12883;52.662;5.196;2022-12-18T06:32:08;29.50;;;29.30;;
24787;SDS011;12883;52.662;5.196;2022-12-18T06:34:34;28.57;;;28.37;;
24787;SDS011;12883;52.662;5.196;2022-12-18T06:37:01;29.13;;;28.93;;
24787;SDS011;12883;52.662;5.196;2022-12-18T06:39:27;29.80;;;29.60;;
24787;SDS011;12883;52.662;5.196;2022-12-18T06:41:52;30.30;;;30.10;;
24787;SDS011;12883;52.662;5.196;2022-12-18T06:44:18;28.10;;;27.90;;
24787;SDS011;12883;52.662;5.196;2022-12-18T06:46:43;27.80;;;27.60;;
24787;SDS011;12883;52.662;5.196;2022-12-18T06:49:09;28.43;;;28.23;;
24787;SDS011;12883;52.662;5.196;2022-12-18T06:51:34;27.03;;;26.83;;
24787;SDS011;12883;52.662;5.196;2022-12-18T06:54:00;25.67;;;25.47;;
24787;SDS011;12883;52.662;5.196;2022-12-18T06:56:26;26.43;;;26.23;;
24787;SDS011;12883;52.662;5.196;2022-12-18T06:58:51;27.43;;;27.23;;
24787;SDS011;12883;52.662;5.196;2022-12-18T07:01:17;24.63;;;24.43;;
24787;SDS011;12883;52.662;5.196;2022-12-18T07:03:42;25.23;;;25.03;;
24787;SDS011;12883;52.662;5.196;2022-12-18T07:06:13;25.30;;;25.10;;
24787;SDS011;12883;52.662;5.196;2022-12-18T07:08:43;22.77;;;22.67;;
24787;SDS011;12883;52.662;5.196;2022-12-18T07:11:08;22.77;;;22.67;;
24787;SDS011;12883;52.662;5.196;2022-12-18T07:13:34;22.30;;;22.17;;
24787;SDS011;12883;52.662;5.196;2022-12-18T07:16:03;21.23;;;21.13;;
24787;SDS011;12883;52.662;5.196;2022-12-18T07:18:39;22.93;;;22.83;;
24787;SDS011;12883;52.662;5.196;2022-12-18T07:21:05;22.23;;;22.13;;
24787;SDS011;12883;52.662;5.196;2022-12-18T07:23:32;22.47;;;22.27;;
24787;SDS011;12883;52.662;5.196;2022-12-18T07:26:06;20.93;;;20.83;;
24787;SDS011;12883;52.662;5.196;2022-12-18T07:28:33;20.50;;;20.40;;
24787;SDS011;12883;52.662;5.196;2022-12-18T07:31:03;20.00;;;19.90;;
24787;SDS011;12883;52.662;5.196;2022-12-18T07:33:33;22.00;;;21.90;;
24787;SDS011;12883;52.662;5.196;2022-12-18T07:35:59;19.73;;;19.63;;
24787;SDS011;12883;52.662;5.196;2022-12-18T07:38:26;19.60;;;19.50;;
24787;SDS011;12883;52.662;5.196;2022-12-18T07:40:51;19.17;;;19.07;;
24787;SDS011;12883;52.662;5.196;2022-12-18T07:43:17;20.33;;;20.23;;
24787;SDS011;12883;52.662;5.196;2022-12-18T07:45:42;19.00;;;18.90;;
24787;SDS011;12883;52.662;5.196;2022-12-18T07:48:08;18.83;;;18.73;;
24787;SDS011;12883;52.662;5.196;2022-12-18T07:50:33;19.83;;;19.73;;
24787;SDS011;12883;52.662;5.196;2022-12-18T07:52:58;18.70;;;18.60;;
24787;SDS011;12883;52.662;5.196;2022-12-18T07:55:28;19.73;;;19.63;;
24787;SDS011;12883;52.662;5.196;2022-12-18T07:57:54;16.67;;;16.57;;
24787;SDS011;12883;52.662;5.196;2022-12-18T08:00:19;17.80;;;17.70;;
24787;SDS011;12883;52.662;5.196;2022-12-18T08:02:44;17.67;;;17.57;;
24787;SDS011;12883;52.662;5.196;2022-12-18T08:05:10;16.97;;;16.87;;
24787;SDS011;12883;52.662;5.196;2022-12-18T08:07:35;17.50;;;17.40;;
24787;SDS011;12883;52.662;5.196;2022-12-18T08:10:00;17.70;;;17.60;;
24787;SDS011;12883;52.662;5.196;2022-12-18T08:12:26;17.17;;;17.07;;
24787;SDS011;12883;52.662;5.196;2022-12-18T08:14:51;18.10;;;18.00;;
24787;SDS011;12883;52.662;5.196;2022-12-18T08:17:16;17.00;;;16.90;;
24787;SDS011;12883;52.662;5.196;2022-12-18T08:19:42;17.50;;;17.40;;
24787;SDS011;12883;52.662;5.196;2022-12-18T08:22:07;17.23;;;17.13;;
24787;SDS011;12883;52.662;5.196;2022-12-18T08:24:32;18.60;;;18.50;;
24787;SDS011;12883;52.662;5.196;2022-12-18T08:26:57;18.20;;;18.10;;
24787;SDS011;12883;52.662;5.196;2022-12-18T08:29:23;18.33;;;18.23;;
24787;SDS011;12883;52.662;5.196;2022-12-18T08:31:48;18.33;;;18.23;;
24787;SDS011;12883;52.662;5.196;2022-12-18T08:34:13;18.00;;;17.90;;
24787;SDS011;12883;52.662;5.196;2022-12-18T08:36:39;18.77;;;18.67;;
24787;SDS011;12883;52.662;5.196;2022-12-18T08:39:05;18.47;;;18.37;;
24787;SDS011;12883;52.662;5.196;2022-12-18T08:41:30;17.10;;;17.00;;
24787;SDS011;12883;52.662;5.196;2022-12-18T08:43:55;16.70;;;16.60;;
24787;SDS011;12883;52.662;5.196;2022-12-18T08:46:40;18.27;;;18.17;;
24787;SDS011;12883;52.662;5.196;2022-12-18T08:49:07;18.40;;;18.30;;
24787;SDS011;12883;52.662;5.196;2022-12-18T08:51:33;18.60;;;18.50;;
24787;SDS011;12883;52.662;5.196;2022-12-18T08:53:59;19.07;;;18.97;;
24787;SDS011;12883;52.662;5.196;2022-12-18T08:56:24;18.73;;;18.63;;
24787;SDS011;12883;52.662;5.196;2022-12-18T08:58:53;19.50;;;19.40;;
24787;SDS011;12883;52.662;5.196;2022-12-18T09:01:19;19.30;;;19.20;;
24787;SDS011;12883;52.662;5.196;2022-12-18T09:03:45;18.60;;;18.50;;
24787;SDS011;12883;52.662;5.196;2022-12-18T09:06:13;18.27;;;18.17;;
24787;SDS011;12883;52.662;5.196;2022-12-18T09:08:39;18.87;;;18.77;;
24787;SDS011;12883;52.662;5.196;2022-12-18T09:11:09;18.53;;;18.43;;
24787;SDS011;12883;52.662;5.196;2022-12-18T09:13:37;18.63;;;18.53;;
24787;SDS011;12883;52.662;5.196;2022-12-18T09:16:03;17.60;;;17.50;;
24787;SDS011;12883;52.662;5.196;2022-12-18T09:18:28;16.73;;;16.63;;
24787;SDS011;12883;52.662;5.196;2022-12-18T09:20:53;17.93;;;17.83;;
24787;SDS011;12883;52.662;5.196;2022-12-18T09:23:19;18.67;;;18.57;;
24787;SDS011;12883;52.662;5.196;2022-12-18T09:25:45;18.77;;;18.67;;
24787;SDS011;12883;52.662;5.196;2022-12-18T09:28:12;17.93;;;17.83;;
24787;SDS011;12883;52.662;5.196;2022-12-18T09:30:40;17.00;;;16.90;;
24787;SDS011;12883;52.662;5.196;2022-12-18T09:33:07;17.90;;;17.80;;
24787;SDS011;12883;52.662;5.196;2022-12-18T09:35:35;18.53;;;18.43;;
24787;SDS011;12883;52.662;5.196;2022-12-18T09:38:04;17.73;;;17.63;;
24787;SDS011;12883;52.662;5.196;2022-12-18T09:40:32;17.37;;;17.27;;
24787;SDS011;12883;52.662;5.196;2022-12-18T09:43:02;17.23;;;17.13;;
24787;SDS011;12883;52.662;5.196;2022-12-18T09:45:40;16.93;;;16.83;;
24787;SDS011;12883;52.662;5.196;2022-12-18T09:48:20;16.57;;;16.47;;
24787;SDS011;12883;52.662;5.196;2022-12-18T09:50:48;17.40;;;17.30;;
24787;SDS011;12883;52.662;5.196;2022-12-18T09:53:16;15.83;;;15.73;;
24787;SDS011;12883;52.662;5.196;2022-12-18T09:55:46;16.57;;;16.47;;
24787;SDS011;12883;52.662;5.196;2022-12-18T10:00:44;16.63;;;16.53;;
24787;SDS011;12883;52.662;5.196;2022-12-18T10:03:12;15.93;;;15.83;;
24787;SDS011;12883;52.662;5.196;2022-12-18T10:08:38;15.30;;;15.20;;
24787;SDS011;12883;52.662;5.196;2022-12-18T10:13:50;15.27;;;15.17;;
24787;SDS011;12883;52.662;5.196;2022-12-18T10:18:59;15.17;;;15.07;;
24787;SDS011;12883;52.662;5.196;2022-12-18T10:21:44;15.90;;;15.80;;
24787;SDS011;12883;52.662;5.196;2022-12-18T10:27:16;15.10;;;15.00;;
24787;SDS011;12883;52.662;5.196;2022-12-18T10:29:46;14.83;;;14.73;;
24787;SDS011;12883;52.662;5.196;2022-12-18T10:32:16;15.57;;;15.47;;
24787;SDS011;12883;52.662;5.196;2022-12-18T10:34:45;14.97;;;14.87;;
24787;SDS011;12883;52.662;5.196;2022-12-18T10:37:14;14.67;;;14.57;;
24787;SDS011;12883;52.662;5.196;2022-12-18T10:39:42;14.97;;;14.87;;
24787;SDS011;12883;52.662;5.196;2022-12-18T10:42:14;14.67;;;14.60;;
24787;SDS011;12883;52.662;5.196;2022-12-18T10:44:42;14.57;;;14.47;;
24787;SDS011;12883;52.662;5.196;2022-12-18T10:47:11;13.93;;;13.83;;
24787;SDS011;12883;52.662;5.196;2022-12-18T10:49:42;14.17;;;14.17;;
24787;SDS011;12883;52.662;5.196;2022-12-18T10:52:18;14.90;;;14.80;;
24787;SDS011;12883;52.662;5.196;2022-12-18T10:54:50;14.20;;;14.20;;
24787;SDS011;12883;52.662;5.196;2022-12-18T10:57:35;13.53;;;13.53;;
24787;SDS011;12883;52.662;5.196;2022-12-18T11:02:52;13.83;;;13.83;;
24787;SDS011;12883;52.662;5.196;2022-12-18T11:05:28;14.83;;;14.73;;
24787;SDS011;12883;52.662;5.196;2022-12-18T11:07:59;13.83;;;13.80;;
24787;SDS011;12883;52.662;5.196;2022-12-18T11:10:30;14.63;;;14.53;;
24787;SDS011;12883;52.662;5.196;2022-12-18T11:15:44;13.20;;;13.20;;
24787;SDS011;12883;52.662;5.196;2022-12-18T11:18:29;13.57;;;13.57;;
24787;SDS011;12883;52.662;5.196;2022-12-18T11:20:59;13.40;;;13.37;;
24787;SDS011;12883;52.662;5.196;2022-12-18T11:23:25;12.33;;;12.33;;
24787;SDS011;12883;52.662;5.196;2022-12-18T11:25:55;13.53;;;13.50;;
24787;SDS011;12883;52.662;5.196;2022-12-18T11:31:21;13.13;;;13.13;;
24787;SDS011;12883;52.662;5.196;2022-12-18T11:34:14;12.83;;;12.80;;
24787;SDS011;12883;52.662;5.196;2022-12-18T11:36:46;12.60;;;12.60;;
24787;SDS011;12883;52.662;5.196;2022-12-18T11:42:10;12.60;;;12.60;;
24787;SDS011;12883;52.662;5.196;2022-12-18T11:47:23;13.30;;;13.23;;
24787;SDS011;12883;52.662;5.196;2022-12-18T11:49:55;12.60;;;12.60;;
24787;SDS011;12883;52.662;5.196;2022-12-18T11:52:25;12.67;;;12.67;;
24787;SDS011;12883;52.662;5.196;2022-12-18T11:54:58;12.13;;;12.13;;
24787;SDS011;12883;52.662;5.196;2022-12-18T11:57:39;12.63;;;12.63;;
24787;SDS011;12883;52.662;5.196;2022-12-18T12:00:21;11.67;;;11.67;;
24787;SDS011;12883;52.662;5.196;2022-12-18T12:13:53;13.43;;;13.43;;
24787;SDS011;12883;52.662;5.196;2022-12-18T12:17:01;11.40;;;11.40;;
24787;SDS011;12883;52.662;5.196;2022-12-18T12:38:31;13.00;;;13.00;;
24787;SDS011;12883;52.662;5.196;2022-12-18T12:41:12;11.43;;;11.43;;
24787;SDS011;12883;52.662;5.196;2022-12-18T12:44:01;12.10;;;12.10;;
24787;SDS011;12883;52.662;5.196;2022-12-18T12:46:31;12.07;;;12.07;;
24787;SDS011;12883;52.662;5.196;2022-12-18T12:49:02;11.63;;;11.63;;
24787;SDS011;12883;52.662;5.196;2022-12-18T12:51:35;13.00;;;12.97;;
24787;SDS011;12883;52.662;5.196;2022-12-18T12:54:05;13.00;;;13.00;;
24787;SDS011;12883;52.662;5.196;2022-12-18T12:56:51;11.93;;;11.93;;
24787;SDS011;12883;52.662;5.196;2022-12-18T12:59:26;12.60;;;12.50;;
24787;SDS011;12883;52.662;5.196;2022-12-18T13:04:50;13.00;;;13.00;;
24787;SDS011;12883;52.662;5.196;2022-12-18T13:12:37;11.50;;;11.50;;
24787;SDS011;12883;52.662;5.196;2022-12-18T13:20:37;12.80;;;12.80;;
24787;SDS011;12883;52.662;5.196;2022-12-18T13:23:18;11.80;;;11.80;;
24787;SDS011;12883;52.662;5.196;2022-12-18T13:30:59;11.70;;;11.70;;
24787;SDS011;12883;52.662;5.196;2022-12-18T13:36:01;11.70;;;11.70;;
24787;SDS011;12883;52.662;5.196;2022-12-18T13:41:40;13.43;;;13.33;;
24787;SDS011;12883;52.662;5.196;2022-12-18T13:44:28;11.80;;;11.80;;
24787;SDS011;12883;52.662;5.196;2022-12-18T13:46:58;12.60;;;12.60;;
24787;SDS011;12883;52.662;5.196;2022-12-18T13:52:14;12.13;;;12.13;;
24787;SDS011;12883;52.662;5.196;2022-12-18T13:54:43;12.33;;;12.33;;
24787;SDS011;12883;52.662;5.196;2022-12-18T13:57:30;12.23;;;12.23;;
24787;SDS011;12883;52.662;5.196;2022-12-18T13:59:58;12.00;;;12.00;;
24787;SDS011;12883;52.662;5.196;2022-12-18T14:02:44;11.93;;;11.93;;
24787;SDS011;12883;52.662;5.196;2022-12-18T14:05:21;12.50;;;12.50;;
24787;SDS011;12883;52.662;5.196;2022-12-18T14:07:51;11.27;;;11.27;;
24787;SDS011;12883;52.662;5.196;2022-12-18T14:10:18;12.07;;;12.07;;
24787;SDS011;12883;52.662;5.196;2022-12-18T14:12:45;12.77;;;12.77;;
24787;SDS011;12883;52.662;5.196;2022-12-18T14:18:36;12.20;;;12.20;;
24787;SDS011;12883;52.662;5.196;2022-12-18T14:20:57;12.60;;;12.60;;
24787;SDS011;12883;52.662;5.196;2022-12-18T14:23:34;12.20;;;12.20;;
24787;SDS011;12883;52.662;5.196;2022-12-18T14:26:03;12.13;;;12.13;;
24787;SDS011;12883;52.662;5.196;2022-12-18T14:28:57;13.23;;;13.23;;
24787;SDS011;12883;52.662;5.196;2022-12-18T14:31:29;12.00;;;12.00;;
24787;SDS011;12883;52.662;5.196;2022-12-18T14:33:55;13.40;;;13.40;;
24787;SDS011;12883;52.662;5.196;2022-12-18T14:36:22;13.03;;;12.93;;
24787;SDS011;12883;52.662;5.196;2022-12-18T14:38:50;12.47;;;12.47;;
24787;SDS011;12883;52.662;5.196;2022-12-18T14:41:18;12.80;;;12.80;;
24787;SDS011;12883;52.662;5.196;2022-12-18T14:43:46;13.87;;;13.77;;
24787;SDS011;12883;52.662;5.196;2022-12-18T14:48:57;12.97;;;12.97;;
24787;SDS011;12883;52.662;5.196;2022-12-18T14:51:25;12.33;;;12.33;;
24787;SDS011;12883;52.662;5.196;2022-12-18T14:53:55;12.23;;;12.17;;
24787;SDS011;12883;52.662;5.196;2022-12-18T14:56:32;12.87;;;12.80;;
24787;SDS011;12883;52.662;5.196;2022-12-18T14:59:00;13.07;;;13.00;;
24787;SDS011;12883;52.662;5.196;2022-12-18T15:01:30;12.53;;;12.53;;
24787;SDS011;12883;52.662;5.196;2022-12-18T15:04:04;13.20;;;13.10;;
24787;SDS011;12883;52.662;5.196;2022-12-18T15:06:48;11.90;;;11.90;;
24787;SDS011;12883;52.662;5.196;2022-12-18T15:09:23;13.40;;;13.40;;
24787;SDS011;12883;52.662;5.196;2022-12-18T15:11:54;12.30;;;12.27;;
24787;SDS011;12883;52.662;5.196;2022-12-18T15:17:03;11.43;;;11.43;;
24787;SDS011;12883;52.662;5.196;2022-12-18T15:19:41;13.23;;;13.17;;
24787;SDS011;12883;52.662;5.196;2022-12-18T15:24:46;12.27;;;12.27;;
24787;SDS011;12883;52.662;5.196;2022-12-18T15:32:32;12.73;;;12.73;;
24787;SDS011;12883;52.662;5.196;2022-12-18T15:37:43;12.93;;;12.93;;
24787;SDS011;12883;52.662;5.196;2022-12-18T15:40:14;11.87;;;11.87;;
24787;SDS011;12883;52.662;5.196;2022-12-18T15:42:41;12.50;;;12.50;;
24787;SDS011;12883;52.662;5.196;2022-12-18T15:45:25;11.50;;;11.50;;
24787;SDS011;12883;52.662;5.196;2022-12-18T15:47:51;12.23;;;12.23;;
24787;SDS011;12883;52.662;5.196;2022-12-18T15:50:16;12.83;;;12.77;;
24787;SDS011;12883;52.662;5.196;2022-12-18T15:52:42;12.87;;;12.87;;
24787;SDS011;12883;52.662;5.196;2022-12-18T15:55:14;13.10;;;13.00;;
24787;SDS011;12883;52.662;5.196;2022-12-18T15:58:06;13.00;;;13.00;;
24787;SDS011;12883;52.662;5.196;2022-12-18T16:00:32;12.53;;;12.53;;
24787;SDS011;12883;52.662;5.196;2022-12-18T16:02:59;12.50;;;12.50;;
24787;SDS011;12883;52.662;5.196;2022-12-18T16:05:25;12.80;;;12.80;;
24787;SDS011;12883;52.662;5.196;2022-12-18T16:07:51;12.90;;;12.80;;
24787;SDS011;12883;52.662;5.196;2022-12-18T16:10:17;13.13;;;13.13;;
24787;SDS011;12883;52.662;5.196;2022-12-18T16:12:42;12.93;;;12.93;;
24787;SDS011;12883;52.662;5.196;2022-12-18T16:15:09;13.07;;;13.07;;
24787;SDS011;12883;52.662;5.196;2022-12-18T16:17:38;13.30;;;13.20;;
24787;SDS011;12883;52.662;5.196;2022-12-18T16:20:04;13.13;;;13.13;;
24787;SDS011;12883;52.662;5.196;2022-12-18T16:22:30;12.50;;;12.50;;
24787;SDS011;12883;52.662;5.196;2022-12-18T16:24:56;13.27;;;13.17;;
24787;SDS011;12883;52.662;5.196;2022-12-18T16:27:22;12.47;;;12.47;;
24787;SDS011;12883;52.662;5.196;2022-12-18T16:29:49;12.43;;;12.43;;
24787;SDS011;12883;52.662;5.196;2022-12-18T16:32:19;12.97;;;12.97;;
24787;SDS011;12883;52.662;5.196;2022-12-18T16:34:46;13.93;;;13.93;;
24787;SDS011;12883;52.662;5.196;2022-12-18T16:37:12;13.43;;;13.43;;